createdAt,value
2023-01-01T00:00:24.583Z,17.51
2023-01-01T00:02:52.409Z,17.82
2023-01-01T00:05:19.185Z,17.89
2023-01-01T00:07:46.478Z,18.06
2023-01-01T00:10:13.938Z,17.92
2023-01-01T00:12:41.320Z,17.69
2023-01-01T00:15:08.592Z,16.95
2023-01-01T00:17:38.886Z,17.65
2023-01-01T00:20:07.438Z,18.08
2023-01-01T00:22:53.890Z,17.07
2023-01-01T00:25:22.149Z,16.58
2023-01-01T00:27:49.837Z,16.87
2023-01-01T00:30:16.713Z,16.63
2023-01-01T00:32:54.730Z,16.35
2023-01-01T00:35:23.407Z,17.01
2023-01-01T00:37:51.249Z,17.10
2023-01-01T00:40:18.644Z,17.26
2023-01-01T00:42:45.815Z,17.26
2023-01-01T00:45:20.619Z,17.07
2023-01-01T00:47:51.278Z,17.60
2023-01-01T00:50:18.955Z,17.33
2023-01-01T00:52:45.922Z,17.24
2023-01-01T00:55:13.251Z,17.37
2023-01-01T00:57:40.142Z,17.41
2023-01-01T01:00:09.017Z,17.40
2023-01-01T01:02:36.430Z,17.47
2023-01-01T01:05:06.649Z,17.51
2023-01-01T01:07:36.012Z,17.50
2023-01-01T01:10:03.812Z,17.43
2023-01-01T01:12:30.685Z,17.63
2023-01-01T01:14:58.332Z,17.78
2023-01-01T01:17:25.747Z,17.77
2023-01-01T01:19:53.333Z,17.74
2023-01-01T01:22:28.029Z,17.80
2023-01-01T01:24:56.785Z,17.64
2023-01-01T01:27:24.094Z,17.31
2023-01-01T01:29:51.984Z,17.48
2023-01-01T01:32:19.619Z,17.73
2023-01-01T01:34:47.048Z,17.68
2023-01-01T01:37:14.749Z,17.74
2023-01-01T01:39:43.776Z,17.95
2023-01-01T01:42:16.979Z,17.74
2023-01-01T01:44:57.151Z,17.83
2023-01-01T01:47:29.536Z,17.83
2023-01-01T01:50:02.674Z,17.79
2023-01-01T01:52:33.074Z,18.01
2023-01-01T01:55:04.535Z,17.57
2023-01-01T01:57:33.299Z,17.80
2023-01-01T02:00:08.636Z,17.87
2023-01-01T02:02:44.732Z,17.89
2023-01-01T02:05:12.342Z,17.84
2023-01-01T02:07:40.398Z,17.50
2023-01-01T02:10:09.835Z,17.68
2023-01-01T02:12:37.421Z,17.56
2023-01-01T02:15:06.063Z,17.60
2023-01-01T02:17:39.644Z,17.65
2023-01-01T02:20:36.921Z,17.74
2023-01-01T02:23:30.660Z,17.45
2023-01-01T02:26:15.527Z,17.55
2023-01-01T02:28:53.287Z,17.47
2023-01-01T02:31:26.597Z,17.35
2023-01-01T02:33:58.347Z,17.57
2023-01-01T02:36:28.765Z,17.55
2023-01-01T02:38:59.218Z,17.45
2023-01-01T02:41:30.499Z,17.49
2023-01-01T02:46:31.994Z,17.58
2023-01-01T02:49:04.687Z,17.14
2023-01-01T02:51:45.572Z,17.20
2023-01-01T02:54:25.795Z,17.29
2023-01-01T02:57:03.514Z,17.43
2023-01-01T02:59:41.078Z,17.38
2023-01-01T03:02:19.766Z,17.27
2023-01-01T03:05:03.499Z,17.34
2023-01-01T03:07:41.298Z,17.66
2023-01-01T03:10:16.052Z,17.24
2023-01-01T03:12:48.269Z,17.17
2023-01-01T03:15:24.134Z,17.15
2023-01-01T03:17:59.025Z,16.97
2023-01-01T03:20:31.454Z,17.26
2023-01-01T03:23:03.918Z,17.14
2023-01-01T03:25:34.461Z,17.55
2023-01-01T03:28:06.652Z,17.54
2023-01-01T03:30:38.715Z,17.58
2023-01-01T03:33:12.906Z,17.42
2023-01-01T03:35:47.044Z,17.07
2023-01-01T03:38:19.846Z,17.10
2023-01-01T03:40:51.766Z,16.90
2023-01-01T03:43:28.044Z,16.84
2023-01-01T03:46:00.851Z,16.96
2023-01-01T03:48:27.756Z,17.07
2023-01-01T03:51:06.436Z,16.94
2023-01-01T03:53:39.733Z,16.99
2023-01-01T03:56:16.402Z,16.53
2023-01-01T03:58:50.096Z,16.74
2023-01-01T04:01:26.376Z,16.69
2023-01-01T04:03:54.906Z,16.39
2023-01-01T04:06:22.267Z,16.27
2023-01-01T04:08:54.242Z,16.35
2023-01-01T04:11:25.419Z,16.54
2023-01-01T04:13:52.706Z,16.45
2023-01-01T04:16:21.784Z,16.58
2023-01-01T04:18:49.073Z,16.39
2023-01-01T04:21:16.608Z,16.69
2023-01-01T04:23:44.119Z,16.62
2023-01-01T04:26:13.459Z,16.60
2023-01-01T04:28:41.185Z,16.47
2023-01-01T04:31:09.242Z,16.89
2023-01-01T04:33:37.914Z,16.99
2023-01-01T04:36:06.203Z,16.80
2023-01-01T04:38:34.323Z,16.62
2023-01-01T04:41:02.308Z,16.31
2023-01-01T04:43:29.819Z,16.38
2023-01-01T04:45:57.222Z,16.45
2023-01-01T04:48:25.168Z,16.59
2023-01-01T04:50:58.000Z,16.44
2023-01-01T04:53:26.324Z,16.08
2023-01-01T04:55:53.592Z,16.69
2023-01-01T04:58:21.069Z,16.68
2023-01-01T05:00:53.459Z,16.85
2023-01-01T05:03:21.154Z,16.95
2023-01-01T05:05:51.327Z,16.80
2023-01-01T05:08:20.461Z,16.96
2023-01-01T05:10:48.072Z,17.02
2023-01-01T05:13:15.489Z,16.78
2023-01-01T05:15:42.771Z,16.82
2023-01-01T05:18:10.773Z,16.57
2023-01-01T05:20:38.038Z,16.76
2023-01-01T05:23:05.358Z,16.93
2023-01-01T05:25:34.206Z,17.08
2023-01-01T05:28:01.637Z,16.92
2023-01-01T05:30:28.933Z,16.80
2023-01-01T05:32:56.255Z,16.60
2023-01-01T05:35:26.527Z,16.54
2023-01-01T05:37:54.535Z,16.67
2023-01-01T05:40:21.914Z,16.66
2023-01-01T05:42:50.639Z,16.59
2023-01-01T05:45:18.159Z,16.59
2023-01-01T05:47:45.614Z,16.50
2023-01-01T05:52:38.730Z,16.61
2023-01-01T05:55:07.163Z,16.75
2023-01-01T05:57:34.067Z,16.62
2023-01-01T06:00:02.821Z,16.46
2023-01-01T06:02:31.689Z,16.91
2023-01-01T06:05:01.575Z,16.82
2023-01-01T06:07:28.712Z,17.04
2023-01-01T06:09:55.993Z,16.82
2023-01-01T06:12:22.773Z,17.16
2023-01-01T06:14:50.120Z,17.02
2023-01-01T06:17:19.139Z,17.25
2023-01-01T06:19:46.427Z,17.09
2023-01-01T06:22:13.693Z,17.28
2023-01-01T06:24:41.256Z,17.11
2023-01-01T06:27:08.929Z,17.26
2023-01-01T06:29:36.248Z,17.14
2023-01-01T06:32:03.913Z,17.17
2023-01-01T06:34:32.724Z,17.11
2023-01-01T06:37:04.703Z,17.34
2023-01-01T06:39:34.515Z,17.05
2023-01-01T06:42:01.778Z,17.13
2023-01-01T06:44:29.040Z,17.18
2023-01-01T06:46:55.737Z,17.09
2023-01-01T06:49:22.922Z,16.89
2023-01-01T06:51:51.707Z,17.09
2023-01-01T06:54:18.637Z,16.95
2023-01-01T06:56:45.855Z,16.95
2023-01-01T06:59:13.773Z,16.90
2023-01-01T07:01:44.376Z,16.58
2023-01-01T07:04:14.067Z,16.50
2023-01-01T07:06:42.599Z,16.27
2023-01-01T07:09:11.859Z,16.09
2023-01-01T07:11:39.109Z,15.89
2023-01-01T07:14:06.685Z,16.19
2023-01-01T07:16:34.260Z,16.66
2023-01-01T07:19:01.416Z,16.75
2023-01-01T07:21:31.644Z,16.90
2023-01-01T07:24:00.491Z,16.94
2023-01-01T07:26:30.663Z,17.11
2023-01-01T07:29:04.608Z,17.15
2023-01-01T07:31:33.907Z,17.09
2023-01-01T07:34:01.549Z,17.18
2023-01-01T07:36:28.993Z,17.27
2023-01-01T07:38:56.002Z,17.03
2023-01-01T07:41:23.368Z,17.00
2023-01-01T07:43:52.176Z,17.15
2023-01-01T07:46:19.441Z,17.31
2023-01-01T07:48:46.922Z,17.46
2023-01-01T07:51:14.267Z,17.38
2023-01-01T07:53:41.672Z,17.46
2023-01-01T07:56:09.516Z,17.35
2023-01-01T07:58:39.981Z,17.37
2023-01-01T08:01:10.470Z,17.27
2023-01-01T08:03:37.401Z,17.26
2023-01-01T08:06:08.429Z,17.33
2023-01-01T08:08:35.912Z,17.31
2023-01-01T08:11:04.068Z,17.25
2023-01-01T08:13:31.864Z,17.17
2023-01-01T08:15:59.270Z,17.29
2023-01-01T08:18:28.522Z,17.50
2023-01-01T08:20:55.887Z,17.28
2023-01-01T08:23:23.837Z,17.18
2023-01-01T08:25:51.040Z,17.31
2023-01-01T08:28:18.816Z,17.00
2023-01-01T08:30:46.469Z,16.93
2023-01-01T08:33:13.991Z,16.99
2023-01-01T08:35:45.581Z,17.09
2023-01-01T08:38:16.610Z,17.33
2023-01-01T08:40:43.896Z,17.20
2023-01-01T08:43:11.308Z,17.26
2023-01-01T08:45:39.304Z,17.32
2023-01-01T08:48:07.127Z,17.56
2023-01-01T08:50:34.463Z,17.47
2023-01-01T08:53:03.177Z,17.48
2023-01-01T08:55:30.609Z,17.63
2023-01-01T08:57:57.779Z,17.47
2023-01-01T09:00:25.132Z,17.58
2023-01-01T09:02:52.588Z,17.65
2023-01-01T09:05:20.048Z,17.71
2023-01-01T09:07:47.738Z,17.83
2023-01-01T09:10:17.628Z,17.64
2023-01-01T09:12:45.340Z,17.28
2023-01-01T09:15:16.031Z,17.12
2023-01-01T09:17:43.525Z,17.22
2023-01-01T09:20:11.083Z,17.34
2023-01-01T09:22:38.443Z,17.13
2023-01-01T09:25:06.345Z,17.22
2023-01-01T09:27:34.979Z,17.08
2023-01-01T09:30:02.763Z,16.96
2023-01-01T09:32:30.324Z,17.06
2023-01-01T09:34:57.515Z,17.05
2023-01-01T09:37:25.206Z,17.33
2023-01-01T09:39:52.586Z,17.39
2023-01-01T09:42:29.438Z,17.21
2023-01-01T09:45:18.819Z,16.91
2023-01-01T09:47:47.850Z,16.87
2023-01-01T09:50:18.953Z,17.09
2023-01-01T09:52:52.922Z,16.91
2023-01-01T09:55:27.014Z,16.95
2023-01-01T09:57:55.925Z,16.71
2023-01-01T10:00:24.817Z,16.75
2023-01-01T10:03:07.304Z,17.20
2023-01-01T10:05:49.529Z,17.21
2023-01-01T10:08:29.343Z,17.38
2023-01-01T10:11:05.573Z,17.28
2023-01-01T10:13:38.326Z,17.47
2023-01-01T10:16:16.002Z,17.47
2023-01-01T10:18:48.617Z,17.57
2023-01-01T10:21:19.571Z,17.53
2023-01-01T10:23:50.075Z,17.48
2023-01-01T10:26:19.411Z,17.54
2023-01-01T10:28:55.185Z,17.43
2023-01-01T10:31:31.830Z,17.30
2023-01-01T10:33:58.987Z,17.28
2023-01-01T10:36:27.147Z,17.23
2023-01-01T10:38:54.394Z,17.06
2023-01-01T10:41:21.796Z,16.91
2023-01-01T10:43:50.097Z,16.87
2023-01-01T10:46:29.444Z,16.94
2023-01-01T10:49:11.192Z,16.69
2023-01-01T10:51:43.944Z,16.71
2023-01-01T10:54:33.048Z,16.51
2023-01-01T10:57:12.830Z,16.60
2023-01-01T10:59:43.096Z,16.83
2023-01-01T11:02:20.558Z,17.06
2023-01-01T11:04:49.862Z,17.13
2023-01-01T11:07:31.063Z,17.20
2023-01-01T11:10:04.197Z,17.06
2023-01-01T11:13:04.307Z,17.13
2023-01-01T11:15:30.901Z,17.16
2023-01-01T11:18:05.950Z,16.49
2023-01-01T11:20:36.781Z,17.07
2023-01-01T11:23:21.144Z,17.09
2023-01-01T11:26:04.661Z,16.87
2023-01-01T11:28:33.424Z,17.17
2023-01-01T11:31:08.069Z,17.43
2023-01-01T11:33:39.319Z,17.44
2023-01-01T11:36:08.397Z,17.23
2023-01-01T11:38:35.948Z,17.39
2023-01-01T11:41:06.362Z,17.94
2023-01-01T11:43:40.115Z,17.84
2023-01-01T11:46:11.088Z,17.84
2023-01-01T11:48:42.858Z,18.11
2023-01-01T11:51:29.916Z,18.28
2023-01-01T11:54:23.122Z,18.15
2023-01-01T11:56:55.076Z,18.10
2023-01-01T11:59:27.966Z,17.91
2023-01-01T12:01:59.541Z,18.51
2023-01-01T12:04:36.198Z,18.85
2023-01-01T12:07:08.034Z,18.97
2023-01-01T12:09:42.558Z,18.99
2023-01-01T12:12:15.975Z,18.94
2023-01-01T12:14:51.853Z,18.96
2023-01-01T12:17:25.008Z,18.72
2023-01-01T12:19:59.682Z,19.11
2023-01-01T12:22:28.500Z,18.99
2023-01-01T12:24:56.960Z,19.17
2023-01-01T12:27:47.763Z,19.37
2023-01-01T12:30:21.592Z,19.63
2023-01-01T12:33:12.947Z,19.96
2023-01-01T12:36:15.432Z,19.91
2023-01-01T12:39:18.019Z,19.87
2023-01-01T12:41:56.918Z,19.43
2023-01-01T12:44:36.872Z,19.75
2023-01-01T12:47:15.847Z,19.85
2023-01-01T12:50:08.182Z,20.01
2023-01-01T12:52:51.387Z,20.03
2023-01-01T12:55:41.547Z,20.02
2023-01-01T12:58:15.105Z,19.98
2023-01-01T13:00:46.358Z,19.90
2023-01-01T13:03:21.552Z,19.40
2023-01-01T13:05:52.661Z,19.65
2023-01-01T13:08:20.078Z,19.68
2023-01-01T13:10:49.037Z,19.87
2023-01-01T13:13:19.031Z,19.80
2023-01-01T13:15:49.235Z,19.76
2023-01-01T13:18:23.298Z,19.56
2023-01-01T13:21:03.897Z,19.64
2023-01-01T13:23:51.758Z,19.25
2023-01-01T13:26:42.981Z,19.01
2023-01-01T13:29:43.378Z,19.25
2023-01-01T13:32:13.944Z,19.36
2023-01-01T13:35:04.757Z,19.29
2023-01-01T13:37:41.853Z,19.63
2023-01-01T13:40:47.504Z,19.61
2023-01-01T13:43:30.474Z,19.55
2023-01-01T13:46:12.359Z,19.76
2023-01-01T13:49:13.197Z,20.01
2023-01-01T13:52:06.259Z,19.90
2023-01-01T13:55:18.415Z,19.99
2023-01-01T13:58:08.047Z,19.88
2023-01-01T14:00:49.634Z,19.81
2023-01-01T14:03:19.358Z,19.93
2023-01-01T14:05:50.346Z,19.95
2023-01-01T14:08:31.703Z,19.72
2023-01-01T14:11:01.932Z,19.59
2023-01-01T14:13:30.740Z,19.60
2023-01-01T14:16:00.206Z,19.85
2023-01-01T14:18:33.964Z,19.83
2023-01-01T14:21:02.213Z,19.94
2023-01-01T14:23:34.714Z,19.67
2023-01-01T14:26:06.500Z,19.89
2023-01-01T14:28:35.559Z,19.67
2023-01-01T14:31:10.771Z,19.75
2023-01-01T14:33:38.864Z,19.51
2023-01-01T14:36:14.714Z,19.46
2023-01-01T14:38:45.877Z,19.40
2023-01-01T14:41:19.572Z,19.09
2023-01-01T14:43:49.675Z,18.91
2023-01-01T14:46:19.679Z,18.84
2023-01-01T14:48:49.501Z,19.24
2023-01-01T14:51:22.280Z,19.37
2023-01-01T14:53:54.083Z,19.17
2023-01-01T14:56:27.036Z,19.03
2023-01-01T14:58:58.470Z,18.93
2023-01-01T15:01:27.216Z,18.75
2023-01-01T15:03:59.246Z,18.95
2023-01-01T15:06:27.112Z,19.10
2023-01-01T15:08:56.255Z,19.05
2023-01-01T15:11:28.766Z,19.02
2023-01-01T15:13:59.595Z,18.93
2023-01-01T15:16:27.156Z,18.93
2023-01-01T15:18:54.320Z,18.75
2023-01-01T15:21:34.654Z,18.96
2023-01-01T15:24:09.913Z,18.89
2023-01-01T15:26:42.360Z,18.85
2023-01-01T15:29:14.819Z,18.73
2023-01-01T15:31:45.183Z,18.75
2023-01-01T15:34:22.249Z,18.86
2023-01-01T15:36:50.521Z,18.66
2023-01-01T15:39:19.622Z,18.50
2023-01-01T15:41:48.130Z,18.82
2023-01-01T15:44:27.808Z,18.70
2023-01-01T15:47:05.532Z,18.53
2023-01-01T15:49:33.061Z,18.59
2023-01-01T15:52:05.315Z,18.65
2023-01-01T15:54:39.190Z,18.46
2023-01-01T15:57:17.862Z,18.52
2023-01-01T15:59:45.762Z,18.24
2023-01-01T16:02:17.490Z,18.58
2023-01-01T16:04:48.740Z,18.33
2023-01-01T16:07:19.746Z,18.37
2023-01-01T16:09:51.985Z,18.50
2023-01-01T16:12:24.546Z,18.47
2023-01-01T16:14:51.703Z,18.25
2023-01-01T16:17:20.697Z,18.13
2023-01-01T16:19:48.843Z,18.13
2023-01-01T16:22:17.595Z,17.97
2023-01-01T16:24:45.162Z,17.79
2023-01-01T16:27:14.503Z,17.90
2023-01-01T16:29:43.378Z,17.84
2023-01-01T16:32:17.342Z,17.75
2023-01-01T16:34:44.942Z,17.59
2023-01-01T16:37:11.716Z,17.58
2023-01-01T16:39:39.243Z,17.46
2023-01-01T16:42:09.981Z,17.45
2023-01-01T16:44:41.599Z,17.38
2023-01-01T16:47:08.773Z,17.30
2023-01-01T16:49:37.431Z,17.29
2023-01-01T16:52:05.086Z,17.31
2023-01-01T16:54:32.303Z,17.22
2023-01-01T16:56:59.147Z,17.30
2023-01-01T16:59:26.701Z,17.28
2023-01-01T17:01:55.715Z,17.25
2023-01-01T17:04:23.153Z,17.23
2023-01-01T17:06:51.417Z,17.25
2023-01-01T17:09:18.477Z,17.34
2023-01-01T17:11:45.763Z,17.38
2023-01-01T17:14:13.528Z,17.28
2023-01-01T17:16:41.103Z,17.38
2023-01-01T17:19:15.103Z,17.34
2023-01-01T17:21:43.841Z,17.58
2023-01-01T17:24:11.881Z,17.66
2023-01-01T17:26:39.313Z,17.60
2023-01-01T17:29:07.140Z,17.57
2023-01-01T17:31:34.613Z,17.74
2023-01-01T17:34:02.326Z,17.69
2023-01-01T17:36:31.763Z,17.66
2023-01-01T17:38:58.505Z,17.84
2023-01-01T17:41:26.207Z,17.91
2023-01-01T17:43:54.082Z,17.97
2023-01-01T17:46:24.081Z,18.16
2023-01-01T17:48:51.761Z,18.11
2023-01-01T17:51:20.091Z,18.33
2023-01-01T17:53:49.523Z,18.50
2023-01-01T17:56:18.621Z,18.44
2023-01-01T17:58:46.875Z,18.21
2023-01-01T18:01:27.892Z,18.03
2023-01-01T18:03:57.403Z,18.08
2023-01-01T18:06:25.297Z,18.28
2023-01-01T18:08:57.553Z,17.15
2023-01-01T18:11:26.450Z,17.33
2023-01-01T18:13:53.727Z,17.07
2023-01-01T18:16:21.639Z,16.59
2023-01-01T18:18:48.830Z,16.54
2023-01-01T18:21:18.707Z,16.69
2023-01-01T18:23:46.561Z,16.67
2023-01-01T18:26:15.022Z,16.61
2023-01-01T18:28:43.027Z,16.65
2023-01-01T18:31:12.745Z,16.63
2023-01-01T18:33:41.121Z,16.64
2023-01-01T18:36:10.855Z,16.59
2023-01-01T18:38:38.394Z,16.47
2023-01-01T18:41:24.021Z,16.67
2023-01-01T18:43:51.860Z,16.24
2023-01-01T18:46:20.194Z,16.15
2023-01-01T18:48:47.968Z,16.11
2023-01-01T18:51:22.348Z,16.12
2023-01-01T18:53:51.547Z,16.04
2023-01-01T18:56:20.405Z,16.01
2023-01-01T18:58:47.828Z,15.88
2023-01-01T19:01:17.903Z,15.97
2023-01-01T19:03:48.456Z,16.08
2023-01-01T19:06:26.912Z,16.12
2023-01-01T19:09:02.865Z,16.18
2023-01-01T19:11:32.932Z,16.16
2023-01-01T19:14:12.625Z,16.01
2023-01-01T19:16:40.141Z,15.99
2023-01-01T19:19:16.670Z,16.14
2023-01-01T19:21:51.041Z,16.14
2023-01-01T19:24:26.863Z,16.12
2023-01-01T19:27:00.266Z,15.98
2023-01-01T19:29:30.756Z,16.07
2023-01-01T19:31:58.791Z,15.96
2023-01-01T19:34:26.377Z,15.99
2023-01-01T19:36:54.233Z,15.81
2023-01-01T19:39:21.369Z,15.08
2023-01-01T19:41:48.571Z,15.26
2023-01-01T19:44:24.530Z,15.71
2023-01-01T19:46:52.406Z,15.96
2023-01-01T19:49:20.140Z,16.14
2023-01-01T19:51:47.455Z,16.20
2023-01-01T19:54:14.957Z,16.11
2023-01-01T19:56:41.732Z,16.27
2023-01-01T19:59:08.481Z,16.21
2023-01-01T20:01:37.212Z,16.27
2023-01-01T20:04:04.737Z,16.53
2023-01-01T20:06:32.388Z,16.50
2023-01-01T20:08:59.882Z,16.78
2023-01-01T20:11:27.607Z,16.75
2023-01-01T20:13:55.334Z,16.76
2023-01-01T20:16:22.105Z,16.87
2023-01-01T20:18:51.333Z,16.82
2023-01-01T20:21:25.662Z,16.92
2023-01-01T20:23:54.226Z,16.79
2023-01-01T20:26:21.098Z,16.67
2023-01-01T20:28:48.414Z,16.66
2023-01-01T20:31:15.267Z,16.73
2023-01-01T20:33:42.464Z,16.62
2023-01-01T20:36:10.661Z,16.56
2023-01-01T20:38:40.338Z,16.49
2023-01-01T20:41:08.122Z,16.63
2023-01-01T20:43:35.551Z,16.81
2023-01-01T20:46:02.923Z,17.14
2023-01-01T20:48:30.106Z,17.07
2023-01-01T20:50:57.370Z,16.93
2023-01-01T20:53:26.174Z,16.99
2023-01-01T20:55:53.723Z,16.89
2023-01-01T20:58:21.198Z,16.92
2023-01-01T21:00:48.569Z,17.05
2023-01-01T21:03:16.410Z,16.92
2023-01-01T21:05:43.790Z,16.68
2023-01-01T21:08:12.139Z,16.62
2023-01-01T21:10:41.242Z,16.59
2023-01-01T21:13:08.434Z,16.48
2023-01-01T21:15:35.961Z,16.39
2023-01-01T21:18:11.227Z,16.42
2023-01-01T21:20:43.597Z,16.54
2023-01-01T21:23:15.639Z,16.50
2023-01-01T21:25:51.704Z,16.64
2023-01-01T21:28:20.136Z,16.61
2023-01-01T21:30:50.637Z,16.57
2023-01-01T21:33:25.908Z,16.58
2023-01-01T21:35:53.408Z,16.47
2023-01-01T21:38:24.995Z,16.61
2023-01-01T21:40:55.765Z,16.59
2023-01-01T21:43:34.516Z,16.50
2023-01-01T21:46:28.622Z,16.42
2023-01-01T21:48:58.756Z,16.43
2023-01-01T21:51:28.191Z,16.34
2023-01-01T21:54:17.165Z,16.34
2023-01-01T21:56:52.308Z,16.31
2023-01-01T21:59:25.024Z,16.61
2023-01-01T22:01:54.518Z,16.60
2023-01-01T22:04:24.634Z,16.62
2023-01-01T22:06:55.150Z,16.55
2023-01-01T22:09:23.824Z,16.94
2023-01-01T22:11:57.967Z,16.97
2023-01-01T22:14:27.852Z,16.87
2023-01-01T22:16:56.133Z,16.79
2023-01-01T22:19:28.139Z,16.60
2023-01-01T22:21:55.707Z,16.50
2023-01-01T22:24:31.483Z,16.45
2023-01-01T22:27:18.233Z,16.25
2023-01-01T22:29:46.649Z,15.87
2023-01-01T22:32:18.890Z,15.96
2023-01-01T22:34:46.337Z,15.91
2023-01-01T22:37:18.946Z,16.07
2023-01-01T22:39:46.427Z,15.99
2023-01-01T22:42:18.183Z,16.01
2023-01-01T22:44:53.975Z,16.17
2023-01-01T22:47:21.669Z,16.17
2023-01-01T22:49:51.187Z,16.33
2023-01-01T22:52:18.807Z,16.17
2023-01-01T22:54:46.062Z,16.13
2023-01-01T22:57:14.081Z,16.30
2023-01-01T22:59:41.534Z,16.39
2023-01-01T23:02:08.926Z,16.44
2023-01-01T23:04:36.287Z,16.36
2023-01-01T23:07:05.145Z,16.63
2023-01-01T23:09:33.175Z,16.54
2023-01-01T23:12:01.290Z,16.44
2023-01-01T23:14:34.346Z,16.30
2023-01-01T23:17:05.767Z,16.14
2023-01-01T23:19:33.197Z,15.66
2023-01-01T23:22:02.008Z,15.88
2023-01-01T23:24:31.239Z,15.50
2023-01-01T23:27:00.803Z,15.51
2023-01-01T23:29:32.140Z,15.41
2023-01-01T23:32:00.194Z,15.55
2023-01-01T23:34:28.320Z,15.62
2023-01-01T23:36:56.318Z,15.63
2023-01-01T23:39:23.500Z,15.70
2023-01-01T23:41:51.680Z,15.86
2023-01-01T23:44:19.115Z,15.78
2023-01-01T23:46:48.156Z,15.71
2023-01-01T23:49:16.214Z,15.60
2023-01-01T23:51:43.561Z,15.63
2023-01-01T23:54:10.884Z,15.44
2023-01-01T23:56:38.364Z,15.49
2023-01-01T23:59:05.668Z,15.39
